createdAt,value
2022-12-18T00:00:58.184Z,98957.30
2022-12-18T00:03:47.748Z,98960.83
2022-12-18T00:06:19.914Z,98959.59
2022-12-18T00:08:52.080Z,98964.05
2022-12-18T00:11:24.778Z,98965.05
2022-12-18T00:13:58.568Z,98973.11
2022-12-18T00:16:33.899Z,98976.99
2022-12-18T00:19:05.833Z,98978.60
2022-12-18T00:21:37.439Z,98982.44
2022-12-18T00:24:09.711Z,98977.76
2022-12-18T00:26:41.677Z,98983.71
2022-12-18T00:29:16.201Z,98991.57
2022-12-18T00:31:48.150Z,98996.79
2022-12-18T00:34:19.141Z,98999.14
2022-12-18T00:36:51.235Z,98996.85
2022-12-18T00:39:22.329Z,98998.49
2022-12-18T00:42:10.995Z,99003.79
2022-12-18T00:44:42.117Z,99005.70
2022-12-18T00:47:13.258Z,99003.69
2022-12-18T00:49:44.398Z,99002.45
2022-12-18T00:52:15.418Z,99001.66
2022-12-18T00:54:46.596Z,99004.34
2022-12-18T00:57:17.822Z,99009.70
2022-12-18T00:59:51.388Z,99014.88
2022-12-18T01:02:22.899Z,99013.59
2022-12-18T01:04:54.253Z,99010.83
2022-12-18T01:07:25.298Z,99012.98
2022-12-18T01:09:56.294Z,99016.55
2022-12-18T01:12:27.438Z,99018.52
2022-12-18T01:14:58.365Z,99018.55
2022-12-18T01:17:29.433Z,99021.77
2022-12-18T01:20:00.338Z,99022.55
2022-12-18T01:22:31.477Z,99020.95
2022-12-18T01:25:02.738Z,99020.73
2022-12-18T01:27:35.024Z,99024.74
2022-12-18T01:30:07.063Z,99027.42
2022-12-18T01:32:38.133Z,99034.02
2022-12-18T01:35:10.489Z,99035.80
2022-12-18T01:37:41.580Z,99043.36
2022-12-18T01:40:13.897Z,99044.28
2022-12-18T01:42:44.893Z,99044.10
2022-12-18T01:45:30.651Z,99044.50
2022-12-18T01:48:03.947Z,99049.92
2022-12-18T01:50:38.481Z,99042.96
2022-12-18T01:53:13.547Z,99046.74
2022-12-18T01:55:48.847Z,99052.36
2022-12-18T01:58:21.653Z,99057.73
2022-12-18T02:00:52.698Z,99060.29
2022-12-18T02:03:24.020Z,99065.89
2022-12-18T02:06:08.146Z,99074.98
2022-12-18T02:08:46.062Z,99082.64
2022-12-18T02:11:24.674Z,99082.58
2022-12-18T02:14:06.142Z,99074.70
2022-12-18T02:16:47.304Z,99072.27
2022-12-18T02:19:57.487Z,99071.13
2022-12-18T02:22:46.973Z,99072.84
2022-12-18T02:25:31.200Z,99072.44
2022-12-18T02:28:01.890Z,99073.47
2022-12-18T02:30:35.968Z,99079.77
2022-12-18T02:33:09.926Z,99075.92
2022-12-18T02:35:43.568Z,99074.19
2022-12-18T02:38:16.442Z,99084.08
2022-12-18T02:40:48.467Z,99097.30
2022-12-18T02:43:19.772Z,99100.16
2022-12-18T02:45:59.089Z,99102.05
2022-12-18T02:48:35.291Z,99098.43
2022-12-18T02:51:15.328Z,99092.70
2022-12-18T02:53:53.578Z,99088.28
2022-12-18T02:56:31.945Z,99086.67
2022-12-18T02:59:07.860Z,99087.77
2022-12-18T03:01:46.448Z,99090.05
2022-12-18T03:04:23.569Z,99096.17
2022-12-18T03:06:58.786Z,99101.68
2022-12-18T03:09:35.115Z,99102.09
2022-12-18T03:12:26.232Z,99106.05
2022-12-18T03:15:03.104Z,99113.92
2022-12-18T03:17:35.681Z,99117.66
2022-12-18T03:20:12.651Z,99120.48
2022-12-18T03:22:46.757Z,99124.84
2022-12-18T03:25:19.310Z,99126.85
2022-12-18T03:27:52.025Z,99128.90
2022-12-18T03:30:23.686Z,99129.36
2022-12-18T03:33:02.500Z,99126.97
2022-12-18T03:35:37.175Z,99130.41
2022-12-18T03:38:08.470Z,99127.48
2022-12-18T03:40:49.735Z,99127.96
2022-12-18T03:43:29.358Z,99129.81
2022-12-18T03:46:09.539Z,99124.92
2022-12-18T03:48:45.700Z,99121.87
2022-12-18T03:51:25.718Z,99127.14
2022-12-18T03:54:00.667Z,99128.64
2022-12-18T03:56:34.673Z,99126.02
2022-12-18T03:59:06.842Z,99124.48
2022-12-18T04:01:42.349Z,99121.10
2022-12-18T04:04:16.610Z,99120.08
2022-12-18T04:06:49.627Z,99121.02
2022-12-18T04:09:22.887Z,99124.36
2022-12-18T04:11:55.143Z,99129.41
2022-12-18T04:14:26.189Z,99134.88
2022-12-18T04:16:57.141Z,99142.94
2022-12-18T04:19:28.385Z,99143.33
2022-12-18T04:21:59.847Z,99144.39
2022-12-18T04:24:31.004Z,99148.98
2022-12-18T04:27:02.228Z,99152.89
2022-12-18T04:29:33.415Z,99149.73
2022-12-18T04:32:04.379Z,99148.30
2022-12-18T04:34:35.554Z,99151.72
2022-12-18T04:37:06.407Z,99162.11
2022-12-18T04:39:38.051Z,99169.77
2022-12-18T04:42:09.071Z,99168.38
2022-12-18T04:44:39.918Z,99173.58
2022-12-18T04:47:11.045Z,99176.52
2022-12-18T04:49:42.002Z,99185.34
2022-12-18T04:52:12.892Z,99195.30
2022-12-18T04:54:44.066Z,99195.23
2022-12-18T04:57:15.100Z,99189.47
2022-12-18T04:59:46.174Z,99189.34
2022-12-18T05:02:17.308Z,99191.10
2022-12-18T05:04:48.741Z,99188.09
2022-12-18T05:07:19.711Z,99189.30
2022-12-18T05:09:50.696Z,99197.45
2022-12-18T05:12:21.780Z,99203.52
2022-12-18T05:14:53.022Z,99203.80
2022-12-18T05:17:24.183Z,99207.45
2022-12-18T05:19:55.106Z,99213.61
2022-12-18T05:22:26.946Z,99217.61
2022-12-18T05:24:56.327Z,99217.04
2022-12-18T05:27:27.329Z,99220.44
2022-12-18T05:29:58.395Z,99226.11
2022-12-18T05:32:29.523Z,99228.21
2022-12-18T05:35:00.676Z,99227.14
2022-12-18T05:37:32.153Z,99233.25
2022-12-18T05:40:03.215Z,99235.89
2022-12-18T05:42:34.408Z,99242.09
2022-12-18T05:45:06.044Z,99243.33
2022-12-18T05:47:37.372Z,99247.66
2022-12-18T05:50:10.371Z,99253.68
2022-12-18T05:52:41.296Z,99262.64
2022-12-18T05:55:12.681Z,99261.76
2022-12-18T05:57:43.739Z,99263.80
2022-12-18T06:00:17.391Z,99266.37
2022-12-18T06:02:51.636Z,99268.52
2022-12-18T06:05:23.098Z,99270.77
2022-12-18T06:07:54.242Z,99276.40
2022-12-18T06:10:25.330Z,99281.27
2022-12-18T06:12:56.120Z,99278.14
2022-12-18T06:15:27.000Z,99280.29
2022-12-18T06:17:58.138Z,99290.30
2022-12-18T06:20:33.233Z,99284.02
2022-12-18T06:23:04.924Z,99280.13
2022-12-18T06:25:35.899Z,99278.66
2022-12-18T06:28:07.954Z,99285.27
2022-12-18T06:30:38.923Z,99288.41
2022-12-18T06:33:10.112Z,99293.97
2022-12-18T06:35:41.280Z,99296.45
2022-12-18T06:38:12.343Z,99293.22
2022-12-18T06:40:43.170Z,99290.08
2022-12-18T06:43:14.240Z,99292.20
2022-12-18T06:45:45.320Z,99295.48
2022-12-18T06:48:16.747Z,99296.80
2022-12-18T06:50:47.867Z,99300.19
2022-12-18T06:53:18.881Z,99298.59
2022-12-18T06:55:49.919Z,99301.48
2022-12-18T06:58:21.027Z,99306.02
2022-12-18T07:00:52.985Z,99310.27
2022-12-18T07:03:22.258Z,99315.41
2022-12-18T07:05:53.154Z,99323.52
2022-12-18T07:08:24.335Z,99325.91
2022-12-18T07:10:56.467Z,99329.11
2022-12-18T07:13:27.972Z,99333.33
2022-12-18T07:16:06.107Z,99333.27
2022-12-18T07:18:40.034Z,99335.67
2022-12-18T07:21:14.195Z,99336.89
2022-12-18T07:23:45.858Z,99335.66
2022-12-18T07:26:18.949Z,99341.70
2022-12-18T07:28:50.935Z,99342.42
2022-12-18T07:31:23.869Z,99347.48
2022-12-18T07:33:55.262Z,99351.16
2022-12-18T07:36:26.953Z,99354.86
2022-12-18T07:38:57.097Z,99353.42
2022-12-18T07:41:28.167Z,99356.40
2022-12-18T07:43:59.148Z,99368.79
2022-12-18T07:46:29.914Z,99373.75
2022-12-18T07:49:01.006Z,99373.53
2022-12-18T07:51:32.096Z,99371.12
2022-12-18T07:54:04.572Z,99381.22
2022-12-18T07:56:35.281Z,99385.92
2022-12-18T07:59:09.196Z,99390.73
2022-12-18T08:01:40.211Z,99392.84
2022-12-18T08:04:11.455Z,99393.71
2022-12-18T08:06:46.241Z,99386.84
2022-12-18T08:09:19.406Z,99391.48
2022-12-18T08:11:50.291Z,99401.49
2022-12-18T08:14:21.329Z,99399.36
2022-12-18T08:16:52.514Z,99401.09
2022-12-18T08:19:23.488Z,99403.44
2022-12-18T08:21:57.180Z,99401.80
2022-12-18T08:24:28.132Z,99406.10
2022-12-18T08:27:27.904Z,99409.81
2022-12-18T08:29:50.461Z,99407.86
2022-12-18T08:32:21.503Z,99409.88
2022-12-18T08:34:52.438Z,99405.92
2022-12-18T08:37:23.773Z,99407.42
2022-12-18T08:39:54.736Z,99405.66
2022-12-18T08:42:43.435Z,99405.33
2022-12-18T08:45:14.608Z,99404.21
2022-12-18T08:47:45.484Z,99410.48
2022-12-18T08:50:18.541Z,99413.60
2022-12-18T08:52:49.578Z,99413.60
2022-12-18T08:55:20.802Z,99415.86
2022-12-18T08:57:53.342Z,99422.15
2022-12-18T09:00:25.005Z,99420.20
2022-12-18T09:02:57.126Z,99416.65
2022-12-18T09:05:28.238Z,99412.08
2022-12-18T09:07:59.202Z,99409.76
2022-12-18T09:10:30.353Z,99411.95
2022-12-18T09:13:01.620Z,99408.13
2022-12-18T09:15:32.711Z,99406.79
2022-12-18T09:18:03.732Z,99401.15
2022-12-18T09:20:34.731Z,99399.42
2022-12-18T09:23:05.618Z,99403.95
2022-12-18T09:25:37.893Z,99400.14
2022-12-18T09:28:15.616Z,99395.91
2022-12-18T09:30:49.795Z,99393.58
2022-12-18T09:33:21.345Z,99398.70
2022-12-18T09:35:52.424Z,99399.86
2022-12-18T09:38:24.288Z,99395.95
2022-12-18T09:40:59.986Z,99398.51
2022-12-18T09:43:36.356Z,99416.99
2022-12-18T09:46:12.872Z,99426.66
2022-12-18T09:48:48.425Z,99419.53
2022-12-18T09:51:23.150Z,99412.23
2022-12-18T09:53:59.582Z,99408.23
2022-12-18T09:56:36.648Z,99404.09
2022-12-18T09:59:08.986Z,99399.70
2022-12-18T10:01:44.484Z,99401.01
2022-12-18T10:04:15.695Z,99402.19
2022-12-18T10:06:54.298Z,99397.16
2022-12-18T10:09:36.020Z,99401.70
2022-12-18T10:12:15.971Z,99412.29
2022-12-18T10:14:54.140Z,99424.82
2022-12-18T10:17:37.707Z,99424.42
2022-12-18T10:20:18.039Z,99429.11
2022-12-18T10:22:59.136Z,99439.21
2022-12-18T10:25:36.773Z,99447.42
2022-12-18T10:28:16.903Z,99447.21
2022-12-18T10:30:47.824Z,99453.28
2022-12-18T10:33:21.386Z,99452.09
2022-12-18T10:35:54.647Z,99454.27
2022-12-18T10:38:28.720Z,99454.58
2022-12-18T10:41:01.353Z,99455.86
2022-12-18T10:43:34.390Z,99456.08
2022-12-18T10:46:18.737Z,99451.41
2022-12-18T10:48:57.194Z,99450.62
2022-12-18T10:51:31.934Z,99442.05
2022-12-18T10:54:06.411Z,99439.31
2022-12-18T10:56:39.082Z,99439.52
2022-12-18T10:59:12.724Z,99439.29
2022-12-18T11:04:11.717Z,99426.77
2022-12-18T11:06:58.521Z,99423.34
2022-12-18T11:09:32.814Z,99420.79
2022-12-18T11:12:07.200Z,99413.14
2022-12-18T11:14:49.563Z,99406.52
2022-12-18T11:17:30.285Z,99409.78
2022-12-18T11:20:03.631Z,99413.23
2022-12-18T11:22:37.215Z,99409.04
2022-12-18T11:25:32.378Z,99405.79
2022-12-18T11:28:05.487Z,99409.67
2022-12-18T11:30:37.927Z,99407.52
2022-12-18T11:33:11.989Z,99399.05
2022-12-18T11:35:51.736Z,99394.73
2022-12-18T11:38:26.530Z,99395.73
2022-12-18T11:41:02.662Z,99387.59
2022-12-18T11:43:40.255Z,99384.26
2022-12-18T11:46:19.823Z,99380.61
2022-12-18T11:48:58.322Z,99377.56
2022-12-18T11:51:39.561Z,99374.83
2022-12-18T11:54:16.871Z,99371.36
2022-12-18T11:56:51.664Z,99374.66
2022-12-18T11:59:34.408Z,99372.73
2022-12-18T12:02:19.746Z,99371.80
2022-12-18T12:05:15.084Z,99374.06
2022-12-18T12:07:56.360Z,99376.33
2022-12-18T12:10:43.407Z,99380.71
2022-12-18T12:13:31.522Z,99379.35
2022-12-18T12:16:12.118Z,99375.81
2022-12-18T12:18:58.770Z,99374.67
2022-12-18T12:21:39.483Z,99379.16
2022-12-18T12:24:21.832Z,99379.38
2022-12-18T12:27:00.756Z,99380.91
2022-12-18T12:29:45.062Z,99381.70
2022-12-18T12:32:32.347Z,99373.19
2022-12-18T12:35:17.801Z,99374.16
2022-12-18T12:37:54.954Z,99372.13
2022-12-18T12:43:29.409Z,99362.08
2022-12-18T12:46:05.378Z,99351.30
2022-12-18T12:48:44.618Z,99353.21
2022-12-18T12:51:18.404Z,99356.83
2022-12-18T12:53:50.179Z,99362.29
2022-12-18T12:56:24.441Z,99375.13
2022-12-18T12:59:04.291Z,99372.73
2022-12-18T13:01:43.617Z,99375.70
2022-12-18T13:04:26.017Z,99380.58
2022-12-18T13:07:05.894Z,99378.51
2022-12-18T13:09:58.274Z,99381.83
2022-12-18T13:12:50.029Z,99384.36
2022-12-18T13:15:26.218Z,99388.25
2022-12-18T13:18:21.493Z,99393.85
2022-12-18T13:21:04.042Z,99398.44
2022-12-18T13:23:39.749Z,99398.48
2022-12-18T13:26:43.217Z,99404.53
2022-12-18T13:29:33.899Z,99405.23
2022-12-18T13:32:05.384Z,99405.56
2022-12-18T13:34:35.694Z,99411.52
2022-12-18T13:37:45.710Z,99411.30
2022-12-18T13:40:56.087Z,99414.29
2022-12-18T13:43:35.640Z,99416.95
2022-12-18T13:46:19.957Z,99420.84
2022-12-18T13:48:57.331Z,99422.79
2022-12-18T13:51:29.794Z,99426.77
2022-12-18T13:54:03.944Z,99426.92
2022-12-18T13:56:35.972Z,99431.11
2022-12-18T13:59:22.284Z,99431.67
2022-12-18T14:01:58.327Z,99441.77
2022-12-18T14:04:33.690Z,99444.58
2022-12-18T14:07:09.630Z,99443.98
2022-12-18T14:09:44.642Z,99446.27
2022-12-18T14:12:40.349Z,99444.34
2022-12-18T14:15:26.389Z,99446.49
2022-12-18T14:18:00.172Z,99444.04
2022-12-18T14:20:34.007Z,99444.95
2022-12-18T14:23:05.877Z,99440.73
2022-12-18T14:25:35.444Z,99439.85
2022-12-18T14:28:17.715Z,99437.55
2022-12-18T14:30:49.318Z,99443.95
2022-12-18T14:33:21.957Z,99443.46
2022-12-18T14:36:01.735Z,99438.33
2022-12-18T14:38:34.759Z,99431.55
2022-12-18T14:41:07.883Z,99423.69
2022-12-18T14:43:40.874Z,99422.74
2022-12-18T14:46:30.921Z,99428.39
2022-12-18T14:49:03.823Z,99435.52
2022-12-18T14:51:36.599Z,99437.52
2022-12-18T14:54:16.548Z,99438.95
2022-12-18T14:56:50.793Z,99437.02
2022-12-18T14:59:25.241Z,99437.07
2022-12-18T15:02:04.232Z,99439.33
2022-12-18T15:04:40.327Z,99439.48
2022-12-18T15:07:17.242Z,99445.09
2022-12-18T15:10:05.529Z,99450.35
2022-12-18T15:12:41.062Z,99447.91
2022-12-18T15:15:43.430Z,99437.64
2022-12-18T15:18:20.633Z,99434.56
2022-12-18T15:20:54.206Z,99436.33
2022-12-18T15:23:27.394Z,99439.77
2022-12-18T15:26:03.415Z,99436.92
2022-12-18T15:28:39.699Z,99437.67
2022-12-18T15:31:26.779Z,99439.73
2022-12-18T15:34:16.396Z,99434.15
2022-12-18T15:36:47.292Z,99432.11
2022-12-18T15:39:18.563Z,99432.84
2022-12-18T15:42:07.598Z,99425.11
2022-12-18T15:44:38.917Z,99404.34
2022-12-18T15:47:14.515Z,99399.36
2022-12-18T15:49:45.628Z,99397.70
2022-12-18T15:52:26.976Z,99401.20
2022-12-18T15:55:15.891Z,99408.23
2022-12-18T15:57:47.230Z,99408.52
2022-12-18T16:00:19.717Z,99401.49
2022-12-18T16:02:50.763Z,99395.77
2022-12-18T16:05:24.089Z,99395.25
2022-12-18T16:07:55.151Z,99395.40
2022-12-18T16:10:27.303Z,99389.08
2022-12-18T16:12:58.497Z,99391.61
2022-12-18T16:15:29.562Z,99398.81
2022-12-18T16:18:00.667Z,99407.58
2022-12-18T16:20:31.677Z,99409.08
2022-12-18T16:23:02.855Z,99413.91
2022-12-18T16:25:34.371Z,99412.91
2022-12-18T16:28:05.356Z,99415.58
2022-12-18T16:30:38.566Z,99421.80
2022-12-18T16:33:10.737Z,99426.90
2022-12-18T16:35:41.917Z,99428.80
2022-12-18T16:38:13.984Z,99434.39
2022-12-18T16:40:58.703Z,99434.73
2022-12-18T16:43:29.823Z,99434.52
2022-12-18T16:46:01.927Z,99428.68
2022-12-18T16:48:32.876Z,99411.91
2022-12-18T16:51:05.866Z,99402.23
2022-12-18T16:53:36.987Z,99410.77
2022-12-18T16:56:08.428Z,99411.17
2022-12-18T16:58:39.307Z,99414.45
2022-12-18T17:01:13.364Z,99418.40
2022-12-18T17:03:45.065Z,99425.53
2022-12-18T17:06:17.660Z,99427.38
2022-12-18T17:08:50.270Z,99429.16
2022-12-18T17:11:21.865Z,99433.84
2022-12-18T17:13:53.059Z,99436.09
2022-12-18T17:16:24.708Z,99431.48
2022-12-18T17:18:55.028Z,99432.44
2022-12-18T17:21:26.172Z,99429.09
2022-12-18T17:23:57.356Z,99428.86
2022-12-18T17:26:28.587Z,99428.38
2022-12-18T17:29:00.901Z,99432.80
2022-12-18T17:31:33.097Z,99428.92
2022-12-18T17:34:04.455Z,99420.88
2022-12-18T17:36:35.516Z,99416.23
2022-12-18T17:39:08.052Z,99408.92
2022-12-18T17:41:39.251Z,99402.02
2022-12-18T17:44:10.313Z,99400.31
2022-12-18T17:46:43.826Z,99402.08
2022-12-18T17:49:15.678Z,99401.59
2022-12-18T17:51:46.594Z,99407.46
2022-12-18T17:54:17.563Z,99404.06
2022-12-18T17:56:49.358Z,99401.56
2022-12-18T17:59:20.989Z,99403.77
2022-12-18T18:01:52.078Z,99410.17
2022-12-18T18:04:23.258Z,99409.48
2022-12-18T18:06:54.272Z,99405.98
2022-12-18T18:09:25.437Z,99403.44
2022-12-18T18:12:14.684Z,99396.56
2022-12-18T18:14:45.753Z,99390.83
2022-12-18T18:17:16.807Z,99387.16
2022-12-18T18:19:49.694Z,99386.34
2022-12-18T18:22:21.223Z,99384.94
2022-12-18T18:24:55.372Z,99385.27
2022-12-18T18:27:26.654Z,99384.76
2022-12-18T18:29:58.199Z,99392.20
2022-12-18T18:32:29.373Z,99398.54
2022-12-18T18:35:00.685Z,99396.56
2022-12-18T18:37:31.656Z,99396.84
2022-12-18T18:40:02.971Z,99396.99
2022-12-18T18:42:34.117Z,99397.09
2022-12-18T18:45:05.463Z,99403.73
2022-12-18T18:47:36.649Z,99407.07
2022-12-18T18:50:09.363Z,99407.64
2022-12-18T18:52:40.593Z,99410.48
2022-12-18T18:55:25.332Z,99416.64
2022-12-18T18:57:57.037Z,99419.81
2022-12-18T19:00:28.448Z,99415.59
2022-12-18T19:03:00.911Z,99411.93
2022-12-18T19:05:33.921Z,99414.13
2022-12-18T19:08:05.370Z,99416.60
2022-12-18T19:10:40.885Z,99416.80
2022-12-18T19:13:22.338Z,99417.73
2022-12-18T19:15:55.565Z,99418.30
2022-12-18T19:18:27.245Z,99418.68
2022-12-18T19:21:00.111Z,99420.11
2022-12-18T19:23:31.887Z,99423.40
2022-12-18T19:29:03.551Z,99428.73
2022-12-18T19:31:36.487Z,99426.14
2022-12-18T19:34:09.725Z,99425.95
2022-12-18T19:36:42.190Z,99430.28
2022-12-18T19:39:14.947Z,99434.69
2022-12-18T19:41:46.526Z,99438.36
2022-12-18T19:44:18.780Z,99437.05
2022-12-18T19:46:52.649Z,99434.21
2022-12-18T19:49:23.808Z,99434.93
2022-12-18T19:51:55.399Z,99432.86
2022-12-18T19:54:26.365Z,99431.84
2022-12-18T19:56:57.693Z,99427.94
2022-12-18T19:59:28.689Z,99426.08
2022-12-18T20:01:59.970Z,99427.00
2022-12-18T20:04:32.004Z,99427.29
2022-12-18T20:07:01.923Z,99425.14
2022-12-18T20:09:33.290Z,99425.01
2022-12-18T20:12:04.858Z,99424.16
2022-12-18T20:14:35.874Z,99419.41
2022-12-18T20:17:06.921Z,99411.11
2022-12-18T20:19:38.221Z,99401.88
2022-12-18T20:22:09.624Z,99395.44
2022-12-18T20:24:40.945Z,99396.02
2022-12-18T20:27:16.152Z,99395.22
2022-12-18T20:29:49.657Z,99398.50
2022-12-18T20:32:20.903Z,99402.41
2022-12-18T20:34:52.186Z,99403.89
2022-12-18T20:37:23.985Z,99400.55
2022-12-18T20:39:56.388Z,99395.89
2022-12-18T20:42:27.475Z,99397.25
2022-12-18T20:44:58.434Z,99398.32
2022-12-18T20:47:29.288Z,99402.95
2022-12-18T20:50:00.966Z,99404.76
2022-12-18T20:52:31.868Z,99398.22
2022-12-18T20:55:03.038Z,99396.24
2022-12-18T20:57:34.014Z,99406.19
2022-12-18T21:00:07.272Z,99418.41
2022-12-18T21:02:38.714Z,99423.91
2022-12-18T21:05:10.834Z,99417.47
2022-12-18T21:07:41.812Z,99416.52
2022-12-18T21:10:13.015Z,99411.29
2022-12-18T21:12:58.866Z,99397.27
2022-12-18T21:15:31.074Z,99394.08
2022-12-18T21:18:01.879Z,99392.95
2022-12-18T21:20:32.977Z,99390.59
2022-12-18T21:23:16.595Z,99384.77
2022-12-18T21:25:48.353Z,99390.02
2022-12-18T21:28:25.742Z,99400.86
2022-12-18T21:30:57.998Z,99399.41
2022-12-18T21:33:27.394Z,99385.70
2022-12-18T21:35:58.514Z,99374.11
2022-12-18T21:38:30.432Z,99373.94
2022-12-18T21:41:01.640Z,99370.61
2022-12-18T21:43:50.278Z,99368.70
2022-12-18T21:46:21.306Z,99361.31
2022-12-18T21:48:52.424Z,99359.31
2022-12-18T21:51:23.254Z,99357.52
2022-12-18T21:53:54.123Z,99353.50
2022-12-18T21:56:25.115Z,99353.09
2022-12-18T21:58:56.833Z,99363.17
2022-12-18T22:01:32.706Z,99364.77
2022-12-18T22:04:08.953Z,99347.88
2022-12-18T22:06:40.060Z,99345.44
2022-12-18T22:09:12.507Z,99356.37
2022-12-18T22:11:43.842Z,99358.55
2022-12-18T22:14:15.022Z,99360.40
2022-12-18T22:16:46.684Z,99361.48
2022-12-18T22:19:17.865Z,99363.63
2022-12-18T22:21:50.381Z,99369.41
2022-12-18T22:24:22.603Z,99371.26
2022-12-18T22:27:01.631Z,99368.56
2022-12-18T22:29:50.985Z,99375.45
2022-12-18T22:32:30.781Z,99371.62
2022-12-18T22:35:08.381Z,99359.79
2022-12-18T22:37:41.583Z,99355.21
2022-12-18T22:40:23.881Z,99351.53
2022-12-18T22:42:56.064Z,99357.58
2022-12-18T22:45:27.898Z,99352.29
2022-12-18T22:47:58.826Z,99351.71
2022-12-18T22:50:30.200Z,99351.16
2022-12-18T22:53:01.357Z,99353.80
2022-12-18T22:55:32.256Z,99353.77
2022-12-18T22:58:03.375Z,99351.35
2022-12-18T23:00:34.702Z,99351.09
2022-12-18T23:03:07.301Z,99344.09
2022-12-18T23:05:38.341Z,99339.66
2022-12-18T23:08:09.314Z,99331.73
2022-12-18T23:10:41.245Z,99333.65
2022-12-18T23:13:12.447Z,99334.86
2022-12-18T23:15:45.198Z,99331.45
2022-12-18T23:18:16.208Z,99332.74
2022-12-18T23:20:47.251Z,99330.98
2022-12-18T23:23:18.601Z,99323.71
2022-12-18T23:25:49.912Z,99323.94
2022-12-18T23:28:20.817Z,99320.94
2022-12-18T23:30:51.987Z,99318.81
2022-12-18T23:33:23.077Z,99320.77
2022-12-18T23:35:58.558Z,99327.58
2022-12-18T23:38:29.454Z,99326.36
2022-12-18T23:41:00.875Z,99321.65
2022-12-18T23:43:32.046Z,99319.42
2022-12-18T23:46:03.117Z,99315.45
2022-12-18T23:48:34.279Z,99311.34
2022-12-18T23:51:10.198Z,99307.77
2022-12-18T23:53:41.345Z,99303.75
2022-12-18T23:56:13.990Z,99305.48
2022-12-18T23:58:45.654Z,99307.96
